sensor_id;sensor_type;location;lat;lon;timestamp;temperature;humidity
19200;DHT22;9732;52.498;5.408;2022-10-31T00:01:41;14.30;99.90
19200;DHT22;9732;52.498;5.408;2022-10-31T00:04:08;14.20;99.90
19200;DHT22;9732;52.498;5.408;2022-10-31T00:06:35;14.20;99.90
19200;DHT22;9732;52.498;5.408;2022-10-31T00:09:04;14.20;99.90
19200;DHT22;9732;52.498;5.408;2022-10-31T00:11:31;14.20;99.90
19200;DHT22;9732;52.498;5.408;2022-10-31T00:13:58;14.20;99.90
19200;DHT22;9732;52.498;5.408;2022-10-31T00:16:25;14.20;99.90
19200;DHT22;9732;52.498;5.408;2022-10-31T00:18:54;14.20;99.90
19200;DHT22;9732;52.498;5.408;2022-10-31T00:21:22;14.20;99.90
19200;DHT22;9732;52.498;5.408;2022-10-31T00:23:49;14.20;99.90
19200;DHT22;9732;52.498;5.408;2022-10-31T00:26:18;14.20;99.90
19200;DHT22;9732;52.498;5.408;2022-10-31T00:28:45;14.20;99.90
19200;DHT22;9732;52.498;5.408;2022-10-31T00:31:12;14.20;99.90
19200;DHT22;9732;52.498;5.408;2022-10-31T00:33:40;14.20;99.90
19200;DHT22;9732;52.498;5.408;2022-10-31T00:36:10;14.20;99.90
19200;DHT22;9732;52.498;5.408;2022-10-31T00:38:37;14.20;99.90
19200;DHT22;9732;52.498;5.408;2022-10-31T00:41:04;14.20;99.90
19200;DHT22;9732;52.498;5.408;2022-10-31T00:43:32;14.20;99.90
19200;DHT22;9732;52.498;5.408;2022-10-31T00:45:59;14.20;99.90
19200;DHT22;9732;52.498;5.408;2022-10-31T00:48:25;14.20;99.90
19200;DHT22;9732;52.498;5.408;2022-10-31T00:50:52;14.20;99.90
19200;DHT22;9732;52.498;5.408;2022-10-31T00:53:19;14.10;99.90
19200;DHT22;9732;52.498;5.408;2022-10-31T00:55:46;14.10;99.90
19200;DHT22;9732;52.498;5.408;2022-10-31T00:58:13;14.10;99.90
19200;DHT22;9732;52.498;5.408;2022-10-31T01:00:41;14.10;99.90
19200;DHT22;9732;52.498;5.408;2022-10-31T01:03:08;14.10;99.90
19200;DHT22;9732;52.498;5.408;2022-10-31T01:05:35;14.10;99.90
19200;DHT22;9732;52.498;5.408;2022-10-31T01:08:02;14.10;99.90
19200;DHT22;9732;52.498;5.408;2022-10-31T01:10:28;14.10;99.90
19200;DHT22;9732;52.498;5.408;2022-10-31T01:12:55;14.10;99.90
19200;DHT22;9732;52.498;5.408;2022-10-31T01:15:22;14.10;99.90
19200;DHT22;9732;52.498;5.408;2022-10-31T01:17:50;14.00;99.90
19200;DHT22;9732;52.498;5.408;2022-10-31T01:20:18;14.10;99.90
19200;DHT22;9732;52.498;5.408;2022-10-31T01:22:44;14.10;99.90
19200;DHT22;9732;52.498;5.408;2022-10-31T01:25:11;14.00;99.90
19200;DHT22;9732;52.498;5.408;2022-10-31T01:27:38;14.00;99.90
19200;DHT22;9732;52.498;5.408;2022-10-31T01:30:07;14.00;99.90
19200;DHT22;9732;52.498;5.408;2022-10-31T01:32:34;13.90;99.90
19200;DHT22;9732;52.498;5.408;2022-10-31T01:35:03;14.00;99.90
19200;DHT22;9732;52.498;5.408;2022-10-31T01:37:30;14.00;99.90
19200;DHT22;9732;52.498;5.408;2022-10-31T01:39:57;13.90;99.90
19200;DHT22;9732;52.498;5.408;2022-10-31T01:42:25;13.90;99.90
19200;DHT22;9732;52.498;5.408;2022-10-31T01:44:59;13.90;99.90
19200;DHT22;9732;52.498;5.408;2022-10-31T01:47:32;13.90;99.90
19200;DHT22;9732;52.498;5.408;2022-10-31T01:50:03;13.90;99.90
19200;DHT22;9732;52.498;5.408;2022-10-31T01:52:32;13.90;99.90
19200;DHT22;9732;52.498;5.408;2022-10-31T01:55:05;14.00;99.90
19200;DHT22;9732;52.498;5.408;2022-10-31T01:57:34;13.90;99.90
19200;DHT22;9732;52.498;5.408;2022-10-31T02:00:04;13.90;99.90
19200;DHT22;9732;52.498;5.408;2022-10-31T02:02:32;13.90;99.90
19200;DHT22;9732;52.498;5.408;2022-10-31T02:05:00;13.90;99.90
19200;DHT22;9732;52.498;5.408;2022-10-31T02:07:33;13.90;99.90
19200;DHT22;9732;52.498;5.408;2022-10-31T02:10:03;13.90;99.90
19200;DHT22;9732;52.498;5.408;2022-10-31T02:12:31;13.90;99.90
19200;DHT22;9732;52.498;5.408;2022-10-31T02:14:59;13.90;99.90
19200;DHT22;9732;52.498;5.408;2022-10-31T02:17:26;13.90;99.90
19200;DHT22;9732;52.498;5.408;2022-10-31T02:19:59;13.90;99.90
19200;DHT22;9732;52.498;5.408;2022-10-31T02:22:34;13.90;99.90
19200;DHT22;9732;52.498;5.408;2022-10-31T02:25:19;13.90;99.90
19200;DHT22;9732;52.498;5.408;2022-10-31T02:28:06;13.80;99.90
19200;DHT22;9732;52.498;5.408;2022-10-31T02:33:23;13.80;99.90
19200;DHT22;9732;52.498;5.408;2022-10-31T02:35:58;13.80;99.90
19200;DHT22;9732;52.498;5.408;2022-10-31T02:38:34;13.80;99.90
19200;DHT22;9732;52.498;5.408;2022-10-31T02:41:08;13.80;99.90
19200;DHT22;9732;52.498;5.408;2022-10-31T02:43:42;13.70;99.90
19200;DHT22;9732;52.498;5.408;2022-10-31T02:46:14;13.80;99.90
19200;DHT22;9732;52.498;5.408;2022-10-31T02:48:44;13.80;99.90
19200;DHT22;9732;52.498;5.408;2022-10-31T02:51:13;13.70;99.90
19200;DHT22;9732;52.498;5.408;2022-10-31T02:53:41;13.70;99.90
19200;DHT22;9732;52.498;5.408;2022-10-31T02:56:12;13.70;99.90
19200;DHT22;9732;52.498;5.408;2022-10-31T02:58:42;13.70;99.90
19200;DHT22;9732;52.498;5.408;2022-10-31T03:04:36;13.60;99.90
19200;DHT22;9732;52.498;5.408;2022-10-31T03:07:13;13.60;99.90
19200;DHT22;9732;52.498;5.408;2022-10-31T03:09:49;13.60;99.90
19200;DHT22;9732;52.498;5.408;2022-10-31T03:12:22;13.60;99.90
19200;DHT22;9732;52.498;5.408;2022-10-31T03:14:54;13.60;99.90
19200;DHT22;9732;52.498;5.408;2022-10-31T03:17:26;13.60;99.90
19200;DHT22;9732;52.498;5.408;2022-10-31T03:19:59;13.60;99.90
19200;DHT22;9732;52.498;5.408;2022-10-31T03:22:29;13.60;99.90
19200;DHT22;9732;52.498;5.408;2022-10-31T03:25:01;13.50;99.90
19200;DHT22;9732;52.498;5.408;2022-10-31T03:27:30;13.60;99.90
19200;DHT22;9732;52.498;5.408;2022-10-31T03:30:02;13.60;99.90
19200;DHT22;9732;52.498;5.408;2022-10-31T03:32:32;13.50;99.90
19200;DHT22;9732;52.498;5.408;2022-10-31T03:35:05;13.50;99.90
19200;DHT22;9732;52.498;5.408;2022-10-31T03:37:34;13.50;99.90
19200;DHT22;9732;52.498;5.408;2022-10-31T03:40:04;13.50;99.90
19200;DHT22;9732;52.498;5.408;2022-10-31T03:42:36;13.40;99.90
19200;DHT22;9732;52.498;5.408;2022-10-31T03:45:07;13.40;99.90
19200;DHT22;9732;52.498;5.408;2022-10-31T03:47:36;13.50;99.90
19200;DHT22;9732;52.498;5.408;2022-10-31T03:50:06;13.40;99.90
19200;DHT22;9732;52.498;5.408;2022-10-31T03:52:36;13.40;99.90
19200;DHT22;9732;52.498;5.408;2022-10-31T03:55:09;13.40;99.90
19200;DHT22;9732;52.498;5.408;2022-10-31T03:57:41;13.40;99.90
19200;DHT22;9732;52.498;5.408;2022-10-31T04:00:12;13.40;99.90
19200;DHT22;9732;52.498;5.408;2022-10-31T04:02:42;13.40;99.90
19200;DHT22;9732;52.498;5.408;2022-10-31T04:05:13;13.40;99.90
19200;DHT22;9732;52.498;5.408;2022-10-31T04:07:47;13.30;99.90
19200;DHT22;9732;52.498;5.408;2022-10-31T04:10:17;13.30;99.90
19200;DHT22;9732;52.498;5.408;2022-10-31T04:12:50;13.40;99.90
19200;DHT22;9732;52.498;5.408;2022-10-31T04:15:19;13.40;99.90
19200;DHT22;9732;52.498;5.408;2022-10-31T04:17:47;13.40;99.90
19200;DHT22;9732;52.498;5.408;2022-10-31T04:20:17;13.30;99.90
19200;DHT22;9732;52.498;5.408;2022-10-31T04:22:43;13.30;99.90
19200;DHT22;9732;52.498;5.408;2022-10-31T04:25:10;13.20;99.90
19200;DHT22;9732;52.498;5.408;2022-10-31T04:27:37;13.20;99.90
19200;DHT22;9732;52.498;5.408;2022-10-31T04:30:05;13.10;99.90
19200;DHT22;9732;52.498;5.408;2022-10-31T04:32:32;12.90;99.90
19200;DHT22;9732;52.498;5.408;2022-10-31T04:34:58;12.90;99.90
19200;DHT22;9732;52.498;5.408;2022-10-31T04:37:26;12.80;99.90
19200;DHT22;9732;52.498;5.408;2022-10-31T04:39:53;12.90;99.90
19200;DHT22;9732;52.498;5.408;2022-10-31T04:42:20;12.80;99.90
19200;DHT22;9732;52.498;5.408;2022-10-31T04:44:46;12.90;99.90
19200;DHT22;9732;52.498;5.408;2022-10-31T04:47:13;12.90;99.90
19200;DHT22;9732;52.498;5.408;2022-10-31T04:49:40;12.90;99.90
19200;DHT22;9732;52.498;5.408;2022-10-31T04:52:06;12.90;99.90
19200;DHT22;9732;52.498;5.408;2022-10-31T04:54:35;12.80;99.90
19200;DHT22;9732;52.498;5.408;2022-10-31T04:57:01;12.90;99.90
19200;DHT22;9732;52.498;5.408;2022-10-31T04:59:28;12.80;99.90
19200;DHT22;9732;52.498;5.408;2022-10-31T05:01:55;12.80;99.90
19200;DHT22;9732;52.498;5.408;2022-10-31T05:04:21;12.80;99.90
19200;DHT22;9732;52.498;5.408;2022-10-31T05:06:48;12.80;99.90
19200;DHT22;9732;52.498;5.408;2022-10-31T05:09:15;12.70;99.90
19200;DHT22;9732;52.498;5.408;2022-10-31T05:11:43;12.60;99.90
19200;DHT22;9732;52.498;5.408;2022-10-31T05:14:10;12.50;99.90
19200;DHT22;9732;52.498;5.408;2022-10-31T05:16:36;12.40;99.90
19200;DHT22;9732;52.498;5.408;2022-10-31T05:19:03;12.30;99.90
19200;DHT22;9732;52.498;5.408;2022-10-31T05:21:30;12.30;99.90
19200;DHT22;9732;52.498;5.408;2022-10-31T05:23:56;12.30;99.90
19200;DHT22;9732;52.498;5.408;2022-10-31T05:26:23;12.20;99.90
19200;DHT22;9732;52.498;5.408;2022-10-31T05:28:51;12.10;99.90
19200;DHT22;9732;52.498;5.408;2022-10-31T05:31:18;11.90;99.90
19200;DHT22;9732;52.498;5.408;2022-10-31T05:33:45;11.80;99.90
19200;DHT22;9732;52.498;5.408;2022-10-31T05:36:11;11.70;99.90
19200;DHT22;9732;52.498;5.408;2022-10-31T05:38:38;11.70;99.90
19200;DHT22;9732;52.498;5.408;2022-10-31T05:41:05;11.70;99.90
19200;DHT22;9732;52.498;5.408;2022-10-31T05:43:32;11.70;99.90
19200;DHT22;9732;52.498;5.408;2022-10-31T05:46:00;11.90;99.90
19200;DHT22;9732;52.498;5.408;2022-10-31T05:48:26;12.00;99.90
19200;DHT22;9732;52.498;5.408;2022-10-31T05:50:53;12.00;99.90
19200;DHT22;9732;52.498;5.408;2022-10-31T05:53:20;12.00;99.90
19200;DHT22;9732;52.498;5.408;2022-10-31T05:55:47;12.10;99.90
19200;DHT22;9732;52.498;5.408;2022-10-31T05:58:13;12.00;99.90
19200;DHT22;9732;52.498;5.408;2022-10-31T06:00:40;12.00;99.90
19200;DHT22;9732;52.498;5.408;2022-10-31T06:03:09;12.00;99.90
19200;DHT22;9732;52.498;5.408;2022-10-31T06:05:36;12.00;99.90
19200;DHT22;9732;52.498;5.408;2022-10-31T06:08:03;12.00;99.90
19200;DHT22;9732;52.498;5.408;2022-10-31T06:10:30;12.00;99.90
19200;DHT22;9732;52.498;5.408;2022-10-31T06:12:56;12.00;99.90
19200;DHT22;9732;52.498;5.408;2022-10-31T06:15:23;12.00;99.90
19200;DHT22;9732;52.498;5.408;2022-10-31T06:17:58;11.90;99.90
19200;DHT22;9732;52.498;5.408;2022-10-31T06:20:26;11.90;99.90
19200;DHT22;9732;52.498;5.408;2022-10-31T06:22:53;11.80;99.90
19200;DHT22;9732;52.498;5.408;2022-10-31T06:25:20;11.90;99.90
19200;DHT22;9732;52.498;5.408;2022-10-31T06:27:46;11.90;99.90
19200;DHT22;9732;52.498;5.408;2022-10-31T06:30:14;11.80;99.90
19200;DHT22;9732;52.498;5.408;2022-10-31T06:32:40;11.80;99.90
19200;DHT22;9732;52.498;5.408;2022-10-31T06:35:07;11.80;99.90
19200;DHT22;9732;52.498;5.408;2022-10-31T06:37:36;11.90;99.90
19200;DHT22;9732;52.498;5.408;2022-10-31T06:40:03;11.90;99.90
19200;DHT22;9732;52.498;5.408;2022-10-31T06:42:30;11.90;99.90
19200;DHT22;9732;52.498;5.408;2022-10-31T06:44:56;12.00;99.90
19200;DHT22;9732;52.498;5.408;2022-10-31T06:47:23;12.10;99.90
19200;DHT22;9732;52.498;5.408;2022-10-31T06:49:50;12.10;99.90
19200;DHT22;9732;52.498;5.408;2022-10-31T06:52:17;12.10;99.90
19200;DHT22;9732;52.498;5.408;2022-10-31T06:54:45;12.10;99.90
19200;DHT22;9732;52.498;5.408;2022-10-31T06:57:11;12.10;99.90
19200;DHT22;9732;52.498;5.408;2022-10-31T06:59:38;12.10;99.90
19200;DHT22;9732;52.498;5.408;2022-10-31T07:02:07;12.10;99.90
19200;DHT22;9732;52.498;5.408;2022-10-31T07:04:34;12.10;99.90
19200;DHT22;9732;52.498;5.408;2022-10-31T07:07:00;12.10;99.90
19200;DHT22;9732;52.498;5.408;2022-10-31T07:09:27;12.20;99.90
19200;DHT22;9732;52.498;5.408;2022-10-31T07:11:55;12.30;99.90
19200;DHT22;9732;52.498;5.408;2022-10-31T07:14:22;12.30;99.90
19200;DHT22;9732;52.498;5.408;2022-10-31T07:16:49;12.20;99.90
19200;DHT22;9732;52.498;5.408;2022-10-31T07:19:17;12.20;99.90
19200;DHT22;9732;52.498;5.408;2022-10-31T07:21:43;12.30;99.90
19200;DHT22;9732;52.498;5.408;2022-10-31T07:24:10;12.30;99.90
19200;DHT22;9732;52.498;5.408;2022-10-31T07:26:37;12.30;99.90
19200;DHT22;9732;52.498;5.408;2022-10-31T07:29:05;12.30;99.90
19200;DHT22;9732;52.498;5.408;2022-10-31T07:31:32;12.30;99.90
19200;DHT22;9732;52.498;5.408;2022-10-31T07:33:58;12.30;99.90
19200;DHT22;9732;52.498;5.408;2022-10-31T07:36:25;12.20;99.90
19200;DHT22;9732;52.498;5.408;2022-10-31T07:38:52;12.30;99.90
19200;DHT22;9732;52.498;5.408;2022-10-31T07:41:18;12.30;99.90
19200;DHT22;9732;52.498;5.408;2022-10-31T07:43:45;12.40;99.90
19200;DHT22;9732;52.498;5.408;2022-10-31T07:46:13;12.40;99.90
19200;DHT22;9732;52.498;5.408;2022-10-31T07:48:40;12.50;99.90
19200;DHT22;9732;52.498;5.408;2022-10-31T07:51:06;12.50;99.90
19200;DHT22;9732;52.498;5.408;2022-10-31T07:53:33;12.50;99.90
19200;DHT22;9732;52.498;5.408;2022-10-31T07:56:00;12.50;99.90
19200;DHT22;9732;52.498;5.408;2022-10-31T07:58:27;12.60;99.90
19200;DHT22;9732;52.498;5.408;2022-10-31T08:00:53;12.70;99.90
19200;DHT22;9732;52.498;5.408;2022-10-31T08:03:21;12.70;99.90
19200;DHT22;9732;52.498;5.408;2022-10-31T08:05:48;12.80;99.90
19200;DHT22;9732;52.498;5.408;2022-10-31T08:08:15;12.80;99.90
19200;DHT22;9732;52.498;5.408;2022-10-31T08:10:42;12.90;99.90
19200;DHT22;9732;52.498;5.408;2022-10-31T08:13:10;13.00;99.90
19200;DHT22;9732;52.498;5.408;2022-10-31T08:15:38;13.00;99.90
19200;DHT22;9732;52.498;5.408;2022-10-31T08:18:11;13.10;99.90
19200;DHT22;9732;52.498;5.408;2022-10-31T08:20:40;13.30;99.90
19200;DHT22;9732;52.498;5.408;2022-10-31T08:23:09;13.40;99.90
19200;DHT22;9732;52.498;5.408;2022-10-31T08:25:36;13.60;99.90
19200;DHT22;9732;52.498;5.408;2022-10-31T08:28:03;13.70;99.90
19200;DHT22;9732;52.498;5.408;2022-10-31T08:30:32;13.80;99.90
19200;DHT22;9732;52.498;5.408;2022-10-31T08:33:01;14.00;99.90
19200;DHT22;9732;52.498;5.408;2022-10-31T08:35:28;14.20;99.90
19200;DHT22;9732;52.498;5.408;2022-10-31T08:37:56;14.30;99.90
19200;DHT22;9732;52.498;5.408;2022-10-31T08:40:25;14.40;99.90
19200;DHT22;9732;52.498;5.408;2022-10-31T08:43:02;14.40;99.90
19200;DHT22;9732;52.498;5.408;2022-10-31T08:45:30;14.40;99.90
19200;DHT22;9732;52.498;5.408;2022-10-31T08:47:58;14.40;99.90
19200;DHT22;9732;52.498;5.408;2022-10-31T08:50:26;14.50;99.90
19200;DHT22;9732;52.498;5.408;2022-10-31T08:52:53;14.50;99.90
19200;DHT22;9732;52.498;5.408;2022-10-31T08:55:21;14.80;99.90
19200;DHT22;9732;52.498;5.408;2022-10-31T08:57:48;15.20;99.90
19200;DHT22;9732;52.498;5.408;2022-10-31T09:00:15;15.60;99.90
19200;DHT22;9732;52.498;5.408;2022-10-31T09:02:41;15.90;99.90
19200;DHT22;9732;52.498;5.408;2022-10-31T09:05:08;16.20;99.90
19200;DHT22;9732;52.498;5.408;2022-10-31T09:07:35;16.60;99.90
19200;DHT22;9732;52.498;5.408;2022-10-31T09:10:02;17.00;99.90
19200;DHT22;9732;52.498;5.408;2022-10-31T09:12:30;17.20;99.90
19200;DHT22;9732;52.498;5.408;2022-10-31T09:14:57;17.40;99.90
19200;DHT22;9732;52.498;5.408;2022-10-31T09:17:26;17.50;99.90
19200;DHT22;9732;52.498;5.408;2022-10-31T09:19:54;17.70;99.90
19200;DHT22;9732;52.498;5.408;2022-10-31T09:22:21;18.00;99.90
19200;DHT22;9732;52.498;5.408;2022-10-31T09:24:48;18.30;99.90
19200;DHT22;9732;52.498;5.408;2022-10-31T09:27:14;18.60;99.90
19200;DHT22;9732;52.498;5.408;2022-10-31T09:29:42;18.80;99.90
19200;DHT22;9732;52.498;5.408;2022-10-31T09:32:09;18.90;99.90
19200;DHT22;9732;52.498;5.408;2022-10-31T09:34:36;18.80;99.90
19200;DHT22;9732;52.498;5.408;2022-10-31T09:37:02;18.70;99.90
19200;DHT22;9732;52.498;5.408;2022-10-31T09:39:29;18.50;99.90
19200;DHT22;9732;52.498;5.408;2022-10-31T09:42:07;18.20;99.90
19200;DHT22;9732;52.498;5.408;2022-10-31T09:44:49;17.90;99.90
19200;DHT22;9732;52.498;5.408;2022-10-31T09:47:24;17.70;99.90
19200;DHT22;9732;52.498;5.408;2022-10-31T09:50:11;17.40;99.90
19200;DHT22;9732;52.498;5.408;2022-10-31T09:52:43;17.20;99.90
19200;DHT22;9732;52.498;5.408;2022-10-31T09:55:16;17.00;99.90
19200;DHT22;9732;52.498;5.408;2022-10-31T09:57:43;16.60;99.90
19200;DHT22;9732;52.498;5.408;2022-10-31T10:00:17;16.40;99.90
19200;DHT22;9732;52.498;5.408;2022-10-31T10:02:49;16.30;99.90
19200;DHT22;9732;52.498;5.408;2022-10-31T10:05:20;16.10;99.90
19200;DHT22;9732;52.498;5.408;2022-10-31T10:07:55;16.00;99.90
19200;DHT22;9732;52.498;5.408;2022-10-31T10:10:31;15.90;99.90
19200;DHT22;9732;52.498;5.408;2022-10-31T10:13:25;15.90;99.90
19200;DHT22;9732;52.498;5.408;2022-10-31T10:16:11;15.90;99.90
19200;DHT22;9732;52.498;5.408;2022-10-31T10:18:52;15.90;99.90
19200;DHT22;9732;52.498;5.408;2022-10-31T10:21:28;15.90;99.90
19200;DHT22;9732;52.498;5.408;2022-10-31T10:24:08;15.90;99.90
19200;DHT22;9732;52.498;5.408;2022-10-31T10:26:40;15.90;99.90
19200;DHT22;9732;52.498;5.408;2022-10-31T10:29:19;15.90;99.90
19200;DHT22;9732;52.498;5.408;2022-10-31T10:31:51;15.90;99.90
19200;DHT22;9732;52.498;5.408;2022-10-31T10:34:22;16.00;99.90
19200;DHT22;9732;52.498;5.408;2022-10-31T10:36:56;16.00;99.90
19200;DHT22;9732;52.498;5.408;2022-10-31T10:39:27;16.00;99.90
19200;DHT22;9732;52.498;5.408;2022-10-31T10:41:59;16.00;99.90
19200;DHT22;9732;52.498;5.408;2022-10-31T10:44:46;16.00;99.90
19200;DHT22;9732;52.498;5.408;2022-10-31T10:47:39;16.00;99.90
19200;DHT22;9732;52.498;5.408;2022-10-31T10:50:11;16.00;99.90
19200;DHT22;9732;52.498;5.408;2022-10-31T10:52:47;16.00;99.90
19200;DHT22;9732;52.498;5.408;2022-10-31T10:55:23;15.90;99.90
19200;DHT22;9732;52.498;5.408;2022-10-31T10:57:56;15.90;99.90
19200;DHT22;9732;52.498;5.408;2022-10-31T11:00:25;15.90;99.90
19200;DHT22;9732;52.498;5.408;2022-10-31T11:02:54;16.00;99.90
19200;DHT22;9732;52.498;5.408;2022-10-31T11:05:30;15.90;99.90
19200;DHT22;9732;52.498;5.408;2022-10-31T11:07:59;16.00;99.90
19200;DHT22;9732;52.498;5.408;2022-10-31T11:10:26;16.00;99.90
19200;DHT22;9732;52.498;5.408;2022-10-31T11:13:06;16.00;99.90
19200;DHT22;9732;52.498;5.408;2022-10-31T11:15:51;16.00;99.90
19200;DHT22;9732;52.498;5.408;2022-10-31T11:18:23;16.10;99.90
19200;DHT22;9732;52.498;5.408;2022-10-31T11:20:52;16.20;99.90
19200;DHT22;9732;52.498;5.408;2022-10-31T11:23:21;16.30;99.90
19200;DHT22;9732;52.498;5.408;2022-10-31T11:25:53;16.30;99.90
19200;DHT22;9732;52.498;5.408;2022-10-31T11:28:20;16.30;99.90
19200;DHT22;9732;52.498;5.408;2022-10-31T11:30:49;16.40;99.90
19200;DHT22;9732;52.498;5.408;2022-10-31T11:33:22;16.40;99.90
19200;DHT22;9732;52.498;5.408;2022-10-31T11:35:52;16.50;99.90
19200;DHT22;9732;52.498;5.408;2022-10-31T11:38:23;16.40;99.90
19200;DHT22;9732;52.498;5.408;2022-10-31T11:40:53;16.30;99.90
19200;DHT22;9732;52.498;5.408;2022-10-31T11:43:21;16.40;99.90
19200;DHT22;9732;52.498;5.408;2022-10-31T11:45:48;16.40;99.90
19200;DHT22;9732;52.498;5.408;2022-10-31T11:48:16;16.40;99.90
19200;DHT22;9732;52.498;5.408;2022-10-31T11:50:48;16.40;99.90
19200;DHT22;9732;52.498;5.408;2022-10-31T11:53:17;16.50;99.90
19200;DHT22;9732;52.498;5.408;2022-10-31T11:55:45;16.60;99.90
19200;DHT22;9732;52.498;5.408;2022-10-31T11:58:20;16.50;99.90
19200;DHT22;9732;52.498;5.408;2022-10-31T12:00:49;16.50;99.90
19200;DHT22;9732;52.498;5.408;2022-10-31T12:03:38;16.60;99.90
19200;DHT22;9732;52.498;5.408;2022-10-31T12:06:12;16.60;99.90
19200;DHT22;9732;52.498;5.408;2022-10-31T12:08:41;16.60;99.90
19200;DHT22;9732;52.498;5.408;2022-10-31T12:11:16;16.60;99.90
19200;DHT22;9732;52.498;5.408;2022-10-31T12:13:56;16.70;99.90
19200;DHT22;9732;52.498;5.408;2022-10-31T12:16:29;16.80;99.90
19200;DHT22;9732;52.498;5.408;2022-10-31T12:19:02;17.00;99.90
19200;DHT22;9732;52.498;5.408;2022-10-31T12:21:54;17.00;99.90
19200;DHT22;9732;52.498;5.408;2022-10-31T12:24:36;17.00;99.90
19200;DHT22;9732;52.498;5.408;2022-10-31T12:27:16;17.10;99.90
19200;DHT22;9732;52.498;5.408;2022-10-31T12:30:10;17.00;99.90
19200;DHT22;9732;52.498;5.408;2022-10-31T12:32:43;17.10;99.90
19200;DHT22;9732;52.498;5.408;2022-10-31T12:35:36;17.00;99.90
19200;DHT22;9732;52.498;5.408;2022-10-31T12:38:28;16.90;99.90
19200;DHT22;9732;52.498;5.408;2022-10-31T12:41:19;16.90;99.90
19200;DHT22;9732;52.498;5.408;2022-10-31T12:43:55;16.80;99.90
19200;DHT22;9732;52.498;5.408;2022-10-31T12:46:29;16.80;99.90
19200;DHT22;9732;52.498;5.408;2022-10-31T12:49:16;16.90;99.90
19200;DHT22;9732;52.498;5.408;2022-10-31T12:51:50;17.00;99.90
19200;DHT22;9732;52.498;5.408;2022-10-31T12:54:42;17.10;99.90
19200;DHT22;9732;52.498;5.408;2022-10-31T12:57:22;17.10;99.90
19200;DHT22;9732;52.498;5.408;2022-10-31T12:59:53;17.00;99.90
19200;DHT22;9732;52.498;5.408;2022-10-31T13:02:23;17.00;99.90
19200;DHT22;9732;52.498;5.408;2022-10-31T13:04:55;17.00;99.90
19200;DHT22;9732;52.498;5.408;2022-10-31T13:07:25;16.90;99.90
19200;DHT22;9732;52.498;5.408;2022-10-31T13:10:00;16.90;99.90
19200;DHT22;9732;52.498;5.408;2022-10-31T13:12:29;16.90;99.90
19200;DHT22;9732;52.498;5.408;2022-10-31T13:14:59;16.90;99.90
19200;DHT22;9732;52.498;5.408;2022-10-31T13:17:30;16.90;99.90
19200;DHT22;9732;52.498;5.408;2022-10-31T13:20:13;16.80;99.90
19200;DHT22;9732;52.498;5.408;2022-10-31T13:22:44;16.80;99.90
19200;DHT22;9732;52.498;5.408;2022-10-31T13:25:15;16.80;99.90
19200;DHT22;9732;52.498;5.408;2022-10-31T13:27:47;16.80;99.90
19200;DHT22;9732;52.498;5.408;2022-10-31T13:30:17;16.80;99.90
19200;DHT22;9732;52.498;5.408;2022-10-31T13:32:49;16.80;99.90
19200;DHT22;9732;52.498;5.408;2022-10-31T13:35:22;16.80;99.90
19200;DHT22;9732;52.498;5.408;2022-10-31T13:38:02;16.70;99.90
19200;DHT22;9732;52.498;5.408;2022-10-31T13:40:41;16.80;99.90
19200;DHT22;9732;52.498;5.408;2022-10-31T13:43:18;16.70;99.90
19200;DHT22;9732;52.498;5.408;2022-10-31T13:45:51;16.70;99.90
19200;DHT22;9732;52.498;5.408;2022-10-31T13:48:32;16.70;99.90
19200;DHT22;9732;52.498;5.408;2022-10-31T13:51:01;16.70;99.90
19200;DHT22;9732;52.498;5.408;2022-10-31T13:53:37;16.60;99.90
19200;DHT22;9732;52.498;5.408;2022-10-31T13:56:15;16.60;99.90
19200;DHT22;9732;52.498;5.408;2022-10-31T13:58:57;16.60;99.90
19200;DHT22;9732;52.498;5.408;2022-10-31T14:01:25;16.50;99.90
19200;DHT22;9732;52.498;5.408;2022-10-31T14:04:01;16.50;99.90
19200;DHT22;9732;52.498;5.408;2022-10-31T14:06:38;16.40;99.90
19200;DHT22;9732;52.498;5.408;2022-10-31T14:09:19;16.30;99.90
19200;DHT22;9732;52.498;5.408;2022-10-31T14:11:47;16.30;99.90
19200;DHT22;9732;52.498;5.408;2022-10-31T14:14:15;16.30;99.90
19200;DHT22;9732;52.498;5.408;2022-10-31T14:16:43;16.30;99.90
19200;DHT22;9732;52.498;5.408;2022-10-31T14:19:16;16.30;99.90
19200;DHT22;9732;52.498;5.408;2022-10-31T14:21:45;16.30;99.90
19200;DHT22;9732;52.498;5.408;2022-10-31T14:24:31;16.20;99.90
19200;DHT22;9732;52.498;5.408;2022-10-31T14:27:02;16.20;99.90
19200;DHT22;9732;52.498;5.408;2022-10-31T14:29:30;16.20;99.90
19200;DHT22;9732;52.498;5.408;2022-10-31T14:32:06;16.20;99.90
19200;DHT22;9732;52.498;5.408;2022-10-31T14:34:41;16.30;99.90
19200;DHT22;9732;52.498;5.408;2022-10-31T14:37:33;16.20;99.90
19200;DHT22;9732;52.498;5.408;2022-10-31T14:40:22;16.20;99.90
19200;DHT22;9732;52.498;5.408;2022-10-31T14:45:52;16.20;99.90
19200;DHT22;9732;52.498;5.408;2022-10-31T14:51:27;16.10;99.90
19200;DHT22;9732;52.498;5.408;2022-10-31T14:53:57;16.10;99.90
19200;DHT22;9732;52.498;5.408;2022-10-31T14:56:27;16.10;99.90
19200;DHT22;9732;52.498;5.408;2022-10-31T14:58:59;16.10;99.90
19200;DHT22;9732;52.498;5.408;2022-10-31T15:01:28;16.10;99.90
19200;DHT22;9732;52.498;5.408;2022-10-31T15:04:00;16.10;99.90
19200;DHT22;9732;52.498;5.408;2022-10-31T15:06:31;16.00;99.90
19200;DHT22;9732;52.498;5.408;2022-10-31T15:09:03;16.00;99.90
19200;DHT22;9732;52.498;5.408;2022-10-31T15:11:37;16.00;99.90
19200;DHT22;9732;52.498;5.408;2022-10-31T15:14:22;16.00;99.90
19200;DHT22;9732;52.498;5.408;2022-10-31T15:16:49;16.00;99.90
19200;DHT22;9732;52.498;5.408;2022-10-31T15:19:21;15.90;99.90
19200;DHT22;9732;52.498;5.408;2022-10-31T15:21:50;16.00;99.90
19200;DHT22;9732;52.498;5.408;2022-10-31T15:24:18;15.90;99.90
19200;DHT22;9732;52.498;5.408;2022-10-31T15:26:48;15.90;99.90
19200;DHT22;9732;52.498;5.408;2022-10-31T15:29:18;15.90;99.90
19200;DHT22;9732;52.498;5.408;2022-10-31T15:31:51;15.90;99.90
19200;DHT22;9732;52.498;5.408;2022-10-31T15:34:21;15.90;99.90
19200;DHT22;9732;52.498;5.408;2022-10-31T15:36:49;15.90;99.90
19200;DHT22;9732;52.498;5.408;2022-10-31T15:39:16;15.90;99.90
19200;DHT22;9732;52.498;5.408;2022-10-31T15:41:49;15.90;99.90
19200;DHT22;9732;52.498;5.408;2022-10-31T15:44:21;15.90;99.90
19200;DHT22;9732;52.498;5.408;2022-10-31T15:46:58;15.90;99.90
19200;DHT22;9732;52.498;5.408;2022-10-31T15:49:34;15.90;99.90
19200;DHT22;9732;52.498;5.408;2022-10-31T15:52:07;15.90;99.90
19200;DHT22;9732;52.498;5.408;2022-10-31T15:54:44;15.80;99.90
19200;DHT22;9732;52.498;5.408;2022-10-31T15:57:11;15.80;99.90
19200;DHT22;9732;52.498;5.408;2022-10-31T15:59:42;15.80;99.90
19200;DHT22;9732;52.498;5.408;2022-10-31T16:02:12;15.80;99.90
19200;DHT22;9732;52.498;5.408;2022-10-31T16:04:49;15.80;99.90
19200;DHT22;9732;52.498;5.408;2022-10-31T16:07:18;15.70;99.90
19200;DHT22;9732;52.498;5.408;2022-10-31T16:09:53;15.70;99.90
19200;DHT22;9732;52.498;5.408;2022-10-31T16:12:21;15.70;99.90
19200;DHT22;9732;52.498;5.408;2022-10-31T16:14:50;15.70;99.90
19200;DHT22;9732;52.498;5.408;2022-10-31T16:17:18;15.70;99.90
19200;DHT22;9732;52.498;5.408;2022-10-31T16:19:50;15.70;99.90